sensor_id;sensor_type;location;lat;lon;timestamp;pressure;altitude;pressure_sealevel;temperature;humidity
51617;BME280;37697;52.588;13.394;2023-01-29T00:01:13;102185.48;;;-1.80;78.67
51617;BME280;37697;52.588;13.394;2023-01-29T00:06:16;102173.98;;;-1.79;78.71
51617;BME280;37697;52.588;13.394;2023-01-29T00:11:19;102167.96;;;-1.78;78.67
51617;BME280;37697;52.588;13.394;2023-01-29T00:16:22;102170.79;;;-1.78;78.70
51617;BME280;37697;52.588;13.394;2023-01-29T00:21:25;102173.81;;;-1.79;78.93
51617;BME280;37697;52.588;13.394;2023-01-29T00:26:28;102163.94;;;-1.81;79.09
51617;BME280;37697;52.588;13.394;2023-01-29T00:31:31;102162.25;;;-1.80;79.06
51617;BME280;37697;52.588;13.394;2023-01-29T00:36:33;102154.55;;;-1.79;79.15
51617;BME280;37697;52.588;13.394;2023-01-29T00:41:36;102146.86;;;-1.75;79.14
51617;BME280;37697;52.588;13.394;2023-01-29T00:46:58;102139.41;;;-1.73;79.23
51617;BME280;37697;52.588;13.394;2023-01-29T00:52:00;102135.23;;;-1.71;79.33
51617;BME280;37697;52.588;13.394;2023-01-29T00:57:23;102137.46;;;-1.68;79.40
51617;BME280;37697;52.588;13.394;2023-01-29T01:02:26;102143.73;;;-1.67;79.39
51617;BME280;37697;52.588;13.394;2023-01-29T01:07:51;102142.77;;;-1.68;79.54
51617;BME280;37697;52.588;13.394;2023-01-29T01:13:02;102143.54;;;-1.71;79.52
51617;BME280;37697;52.588;13.394;2023-01-29T01:18:06;102152.69;;;-1.74;79.80
51617;BME280;37697;52.588;13.394;2023-01-29T01:23:08;102151.35;;;-1.73;79.90
51617;BME280;37697;52.588;13.394;2023-01-29T01:28:11;102149.59;;;-1.72;79.96
51617;BME280;37697;52.588;13.394;2023-01-29T01:33:14;102137.62;;;-1.73;80.08
51617;BME280;37697;52.588;13.394;2023-01-29T01:38:17;102137.23;;;-1.71;80.12
51617;BME280;37697;52.588;13.394;2023-01-29T01:43:19;102142.98;;;-1.69;80.37
51617;BME280;37697;52.588;13.394;2023-01-29T01:48:23;102143.77;;;-1.70;80.31
51617;BME280;37697;52.588;13.394;2023-01-29T01:53:43;102145.23;;;-1.69;80.44
51617;BME280;37697;52.588;13.394;2023-01-29T01:58:57;102142.46;;;-1.65;80.62
51617;BME280;37697;52.588;13.394;2023-01-29T02:04:03;102136.89;;;-1.62;80.64
51617;BME280;37697;52.588;13.394;2023-01-29T02:09:31;102122.10;;;-1.61;80.67
51617;BME280;37697;52.588;13.394;2023-01-29T02:14:36;102110.66;;;-1.62;80.60
51617;BME280;37697;52.588;13.394;2023-01-29T02:25:12;102113.46;;;-1.57;80.75
51617;BME280;37697;52.588;13.394;2023-01-29T02:30:32;102101.18;;;-1.55;80.77
51617;BME280;37697;52.588;13.394;2023-01-29T02:35:41;102105.80;;;-1.54;80.89
51617;BME280;37697;52.588;13.394;2023-01-29T02:41:05;102109.16;;;-1.52;80.78
51617;BME280;37697;52.588;13.394;2023-01-29T02:46:22;102105.70;;;-1.52;80.87
51617;BME280;37697;52.588;13.394;2023-01-29T02:51:43;102104.87;;;-1.49;81.02
51617;BME280;37697;52.588;13.394;2023-01-29T02:57:19;102101.86;;;-1.47;81.28
51617;BME280;37697;52.588;13.394;2023-01-29T03:02:29;102096.02;;;-1.44;81.28
51617;BME280;37697;52.588;13.394;2023-01-29T03:07:37;102095.80;;;-1.42;81.31
51617;BME280;37697;52.588;13.394;2023-01-29T03:12:56;102093.14;;;-1.42;81.46
51617;BME280;37697;52.588;13.394;2023-01-29T03:18:09;102083.83;;;-1.40;81.47
51617;BME280;37697;52.588;13.394;2023-01-29T03:23:21;102082.77;;;-1.37;81.72
51617;BME280;37697;52.588;13.394;2023-01-29T03:28:47;102087.86;;;-1.36;81.81
51617;BME280;37697;52.588;13.394;2023-01-29T03:34:13;102075.67;;;-1.35;82.05
51617;BME280;37697;52.588;13.394;2023-01-29T03:39:18;102061.39;;;-1.35;82.12
51617;BME280;37697;52.588;13.394;2023-01-29T03:44:34;102051.62;;;-1.33;82.24
51617;BME280;37697;52.588;13.394;2023-01-29T04:00:16;102014.67;;;-1.30;82.52
51617;BME280;37697;52.588;13.394;2023-01-29T04:05:26;102002.13;;;-1.30;82.78
51617;BME280;37697;52.588;13.394;2023-01-29T04:10:32;101992.02;;;-1.33;82.95
51617;BME280;37697;52.588;13.394;2023-01-29T04:15:51;101983.09;;;-1.32;83.22
51617;BME280;37697;52.588;13.394;2023-01-29T04:20:55;101977.90;;;-1.31;83.53
51617;BME280;37697;52.588;13.394;2023-01-29T04:31:27;101972.95;;;-1.32;84.02
51617;BME280;37697;52.588;13.394;2023-01-29T04:36:43;101965.42;;;-1.32;84.41
51617;BME280;37697;52.588;13.394;2023-01-29T04:41:52;101958.17;;;-1.35;85.05
51617;BME280;37697;52.588;13.394;2023-01-29T04:47:14;101967.44;;;-1.36;84.95
51617;BME280;37697;52.588;13.394;2023-01-29T04:52:43;101972.15;;;-1.39;85.35
51617;BME280;37697;52.588;13.394;2023-01-29T05:03:15;101973.44;;;-1.39;86.09
51617;BME280;37697;52.588;13.394;2023-01-29T05:08:20;101971.83;;;-1.42;86.51
51617;BME280;37697;52.588;13.394;2023-01-29T05:13:28;101979.02;;;-1.44;86.94
51617;BME280;37697;52.588;13.394;2023-01-29T05:18:33;101973.13;;;-1.45;87.09
51617;BME280;37697;52.588;13.394;2023-01-29T05:23:36;101974.83;;;-1.44;87.26
51617;BME280;37697;52.588;13.394;2023-01-29T05:28:39;101977.77;;;-1.45;87.27
51617;BME280;37697;52.588;13.394;2023-01-29T05:33:42;101972.58;;;-1.45;87.29
51617;BME280;37697;52.588;13.394;2023-01-29T05:38:44;101981.02;;;-1.45;87.61
51617;BME280;37697;52.588;13.394;2023-01-29T05:43:47;101978.40;;;-1.45;88.01
51617;BME280;37697;52.588;13.394;2023-01-29T05:48:53;101974.94;;;-1.46;87.96
51617;BME280;37697;52.588;13.394;2023-01-29T05:53:56;101977.69;;;-1.45;88.03
51617;BME280;37697;52.588;13.394;2023-01-29T05:58:58;101988.67;;;-1.41;88.18
51617;BME280;37697;52.588;13.394;2023-01-29T06:04:01;101995.85;;;-1.38;88.35
51617;BME280;37697;52.588;13.394;2023-01-29T06:09:04;101992.16;;;-1.37;88.20
51617;BME280;37697;52.588;13.394;2023-01-29T06:14:07;101999.89;;;-1.33;88.45
51617;BME280;37697;52.588;13.394;2023-01-29T06:19:10;102002.79;;;-1.30;88.47
51617;BME280;37697;52.588;13.394;2023-01-29T06:24:12;101994.39;;;-1.29;88.62
51617;BME280;37697;52.588;13.394;2023-01-29T06:29:15;101986.61;;;-1.29;88.62
51617;BME280;37697;52.588;13.394;2023-01-29T06:34:18;101990.14;;;-1.31;88.68
51617;BME280;37697;52.588;13.394;2023-01-29T06:39:21;101981.35;;;-1.33;88.80
51617;BME280;37697;52.588;13.394;2023-01-29T06:44:23;101983.50;;;-1.33;88.93
51617;BME280;37697;52.588;13.394;2023-01-29T06:49:26;101994.29;;;-1.31;89.13
51617;BME280;37697;52.588;13.394;2023-01-29T06:54:29;102006.91;;;-1.29;89.38
51617;BME280;37697;52.588;13.394;2023-01-29T06:59:31;102005.75;;;-1.29;89.53
51617;BME280;37697;52.588;13.394;2023-01-29T07:04:34;101998.41;;;-1.27;89.65
51617;BME280;37697;52.588;13.394;2023-01-29T07:09:41;101988.89;;;-1.26;89.72
51617;BME280;37697;52.588;13.394;2023-01-29T07:14:44;101992.31;;;-1.24;89.97
51617;BME280;37697;52.588;13.394;2023-01-29T07:19:47;101982.19;;;-1.22;90.04
51617;BME280;37697;52.588;13.394;2023-01-29T07:24:50;101985.79;;;-1.20;90.19
51617;BME280;37697;52.588;13.394;2023-01-29T07:29:53;102001.06;;;-1.18;90.39
51617;BME280;37697;52.588;13.394;2023-01-29T07:34:55;102004.13;;;-1.15;90.30
51617;BME280;37697;52.588;13.394;2023-01-29T07:39:58;101998.08;;;-1.12;90.44
51617;BME280;37697;52.588;13.394;2023-01-29T07:45:01;101984.76;;;-1.10;90.47
51617;BME280;37697;52.588;13.394;2023-01-29T07:50:04;101972.41;;;-1.06;90.52
51617;BME280;37697;52.588;13.394;2023-01-29T07:55:07;101954.38;;;-1.05;90.68
51617;BME280;37697;52.588;13.394;2023-01-29T08:00:11;101955.86;;;-1.02;91.06
51617;BME280;37697;52.588;13.394;2023-01-29T08:05:15;101964.19;;;-1.01;91.05
51617;BME280;37697;52.588;13.394;2023-01-29T08:10:17;101948.27;;;-0.98;91.10
51617;BME280;37697;52.588;13.394;2023-01-29T08:15:21;101941.77;;;-0.95;91.21
51617;BME280;37697;52.588;13.394;2023-01-29T08:20:24;101947.23;;;-0.91;91.56
51617;BME280;37697;52.588;13.394;2023-01-29T08:25:27;101959.20;;;-0.88;91.44
51617;BME280;37697;52.588;13.394;2023-01-29T08:30:33;101956.02;;;-0.84;91.70
51617;BME280;37697;52.588;13.394;2023-01-29T08:35:36;101950.30;;;-0.81;91.75
51617;BME280;37697;52.588;13.394;2023-01-29T08:40:39;101946.00;;;-0.78;91.62
51617;BME280;37697;52.588;13.394;2023-01-29T08:45:42;101939.65;;;-0.74;91.74
51617;BME280;37697;52.588;13.394;2023-01-29T08:50:45;101946.13;;;-0.71;91.92
51617;BME280;37697;52.588;13.394;2023-01-29T08:55:48;101947.42;;;-0.70;92.15
51617;BME280;37697;52.588;13.394;2023-01-29T09:00:51;101934.14;;;-0.69;92.03
51617;BME280;37697;52.588;13.394;2023-01-29T09:05:54;101935.58;;;-0.66;92.02
51617;BME280;37697;52.588;13.394;2023-01-29T09:10:58;101934.48;;;-0.62;92.30
51617;BME280;37697;52.588;13.394;2023-01-29T09:16:02;101937.92;;;-0.58;92.36
51617;BME280;37697;52.588;13.394;2023-01-29T09:21:05;101928.56;;;-0.54;92.41
51617;BME280;37697;52.588;13.394;2023-01-29T09:26:08;101929.64;;;-0.48;92.31
51617;BME280;37697;52.588;13.394;2023-01-29T09:31:11;101934.92;;;-0.42;92.46
51617;BME280;37697;52.588;13.394;2023-01-29T09:36:13;101926.02;;;-0.36;92.54
51617;BME280;37697;52.588;13.394;2023-01-29T09:46:52;101916.86;;;-0.27;92.29
51617;BME280;37697;52.588;13.394;2023-01-29T09:57:09;101903.15;;;-0.17;92.42
51617;BME280;37697;52.588;13.394;2023-01-29T10:02:46;101892.02;;;-0.06;92.41
51617;BME280;37697;52.588;13.394;2023-01-29T10:08:31;101883.54;;;0.07;92.19
51617;BME280;37697;52.588;13.394;2023-01-29T10:14:07;101880.10;;;0.12;91.89
51617;BME280;37697;52.588;13.394;2023-01-29T10:19:35;101871.23;;;0.19;92.08
51617;BME280;37697;52.588;13.394;2023-01-29T10:24:52;101873.38;;;0.29;91.70
51617;BME280;37697;52.588;13.394;2023-01-29T10:29:55;101892.89;;;0.35;91.60
51617;BME280;37697;52.588;13.394;2023-01-29T10:35:19;101889.19;;;0.48;91.68
51617;BME280;37697;52.588;13.394;2023-01-29T10:40:33;101874.13;;;0.56;91.21
51617;BME280;37697;52.588;13.394;2023-01-29T10:45:45;101857.23;;;0.73;91.37
51617;BME280;37697;52.588;13.394;2023-01-29T10:51:14;101853.16;;;0.89;91.04
51617;BME280;37697;52.588;13.394;2023-01-29T11:01:39;101825.55;;;1.22;90.66
51617;BME280;37697;52.588;13.394;2023-01-29T11:06:42;101809.43;;;1.36;89.99
51617;BME280;37697;52.588;13.394;2023-01-29T11:11:52;101804.50;;;1.44;89.75
51617;BME280;37697;52.588;13.394;2023-01-29T11:16:56;101797.14;;;1.62;89.46
51617;BME280;37697;52.588;13.394;2023-01-29T11:22:00;101791.93;;;1.75;89.19
51617;BME280;37697;52.588;13.394;2023-01-29T11:27:13;101788.66;;;1.89;88.79
51617;BME280;37697;52.588;13.394;2023-01-29T11:37:31;101774.77;;;2.12;88.01
51617;BME280;37697;52.588;13.394;2023-01-29T11:42:34;101766.17;;;2.15;86.93
51617;BME280;37697;52.588;13.394;2023-01-29T11:47:37;101767.63;;;2.12;86.70
51617;BME280;37697;52.588;13.394;2023-01-29T11:52:42;101760.46;;;2.08;86.55
51617;BME280;37697;52.588;13.394;2023-01-29T11:57:47;101754.75;;;2.06;86.18
51617;BME280;37697;52.588;13.394;2023-01-29T12:02:55;101744.30;;;2.05;86.31
51617;BME280;37697;52.588;13.394;2023-01-29T12:08:00;101733.66;;;2.09;86.00
51617;BME280;37697;52.588;13.394;2023-01-29T12:18:24;101717.23;;;2.18;86.14
51617;BME280;37697;52.588;13.394;2023-01-29T12:28:49;101722.43;;;2.34;85.77
51617;BME280;37697;52.588;13.394;2023-01-29T12:34:11;101710.73;;;2.29;85.09
51617;BME280;37697;52.588;13.394;2023-01-29T12:39:16;101692.52;;;2.26;84.88
51617;BME280;37697;52.588;13.394;2023-01-29T12:44:37;101684.80;;;2.20;84.66
51617;BME280;37697;52.588;13.394;2023-01-29T12:49:47;101688.84;;;2.14;84.56
51617;BME280;37697;52.588;13.394;2023-01-29T12:55:21;101685.74;;;2.09;84.85
51617;BME280;37697;52.588;13.394;2023-01-29T13:00:33;101681.25;;;2.02;84.86
51617;BME280;37697;52.588;13.394;2023-01-29T13:10:58;101675.02;;;2.08;85.07
51617;BME280;37697;52.588;13.394;2023-01-29T13:16:08;101669.40;;;2.09;84.91
51617;BME280;37697;52.588;13.394;2023-01-29T13:21:16;101668.98;;;2.10;84.74
51617;BME280;37697;52.588;13.394;2023-01-29T13:26:20;101659.58;;;2.09;84.88
51617;BME280;37697;52.588;13.394;2023-01-29T13:31:46;101651.73;;;2.06;84.51
51617;BME280;37697;52.588;13.394;2023-01-29T13:36:52;101651.76;;;2.01;84.49
51617;BME280;37697;52.588;13.394;2023-01-29T13:41:58;101647.67;;;1.98;84.17
51617;BME280;37697;52.588;13.394;2023-01-29T13:47:07;101644.31;;;1.93;84.24
51617;BME280;37697;52.588;13.394;2023-01-29T13:52:25;101643.20;;;1.85;84.13
51617;BME280;37697;52.588;13.394;2023-01-29T13:57:52;101635.78;;;1.79;84.28
51617;BME280;37697;52.588;13.394;2023-01-29T14:13:33;101621.81;;;1.65;84.54
51617;BME280;37697;52.588;13.394;2023-01-29T14:18:56;101616.48;;;1.63;84.78
51617;BME280;37697;52.588;13.394;2023-01-29T14:24:18;101617.56;;;1.60;85.14
51617;BME280;37697;52.588;13.394;2023-01-29T14:29:26;101617.06;;;1.54;85.24
51617;BME280;37697;52.588;13.394;2023-01-29T14:34:46;101611.45;;;1.50;85.71
51617;BME280;37697;52.588;13.394;2023-01-29T14:40:14;101606.25;;;1.43;86.08
51617;BME280;37697;52.588;13.394;2023-01-29T14:45:28;101603.77;;;1.36;86.31
51617;BME280;37697;52.588;13.394;2023-01-29T14:55:58;101589.15;;;1.25;87.21
51617;BME280;37697;52.588;13.394;2023-01-29T15:01:05;101587.86;;;1.18;87.58
51617;BME280;37697;52.588;13.394;2023-01-29T15:06:14;101584.66;;;1.11;87.87
51617;BME280;37697;52.588;13.394;2023-01-29T15:11:30;101587.35;;;1.07;88.24
51617;BME280;37697;52.588;13.394;2023-01-29T15:22:03;101577.55;;;1.00;88.64
51617;BME280;37697;52.588;13.394;2023-01-29T15:27:12;101567.02;;;1.00;88.87
51617;BME280;37697;52.588;13.394;2023-01-29T15:32:25;101556.02;;;0.94;89.03
51617;BME280;37697;52.588;13.394;2023-01-29T15:37:32;101554.19;;;0.91;89.16
51617;BME280;37697;52.588;13.394;2023-01-29T15:42:44;101546.42;;;0.88;89.60
51617;BME280;37697;52.588;13.394;2023-01-29T15:47:48;101538.20;;;0.82;89.74
51617;BME280;37697;52.588;13.394;2023-01-29T15:52:52;101529.34;;;0.78;89.59
51617;BME280;37697;52.588;13.394;2023-01-29T15:57:56;101526.58;;;0.73;90.20
51617;BME280;37697;52.588;13.394;2023-01-29T16:02:59;101520.90;;;0.72;90.22
51617;BME280;37697;52.588;13.394;2023-01-29T16:08:04;101513.70;;;0.72;90.24
51617;BME280;37697;52.588;13.394;2023-01-29T16:13:25;101515.19;;;0.72;90.35
51617;BME280;37697;52.588;13.394;2023-01-29T16:18:37;101507.85;;;0.71;90.40
51617;BME280;37697;52.588;13.394;2023-01-29T16:23:52;101512.07;;;0.70;90.20
51617;BME280;37697;52.588;13.394;2023-01-29T16:28:56;101512.98;;;0.70;90.45
51617;BME280;37697;52.588;13.394;2023-01-29T16:34:07;101508.99;;;0.68;90.27
51617;BME280;37697;52.588;13.394;2023-01-29T16:39:23;101505.84;;;0.65;90.30
51617;BME280;37697;52.588;13.394;2023-01-29T16:54:32;101501.42;;;0.66;90.33
51617;BME280;37697;52.588;13.394;2023-01-29T16:59:36;101498.79;;;0.66;90.24
51617;BME280;37697;52.588;13.394;2023-01-29T17:04:41;101497.70;;;0.68;90.31
51617;BME280;37697;52.588;13.394;2023-01-29T17:09:47;101484.62;;;0.69;90.16
51617;BME280;37697;52.588;13.394;2023-01-29T17:14:56;101475.63;;;0.69;90.03
51617;BME280;37697;52.588;13.394;2023-01-29T17:20:13;101471.10;;;0.70;89.76
51617;BME280;37697;52.588;13.394;2023-01-29T17:25:16;101468.19;;;0.71;89.56
51617;BME280;37697;52.588;13.394;2023-01-29T17:30:22;101462.59;;;0.70;89.63
51617;BME280;37697;52.588;13.394;2023-01-29T17:35:26;101457.15;;;0.72;89.46
51617;BME280;37697;52.588;13.394;2023-01-29T17:40:35;101449.52;;;0.73;89.18
51617;BME280;37697;52.588;13.394;2023-01-29T17:45:39;101433.38;;;0.74;89.19
51617;BME280;37697;52.588;13.394;2023-01-29T17:50:43;101424.48;;;0.74;89.24
51617;BME280;37697;52.588;13.394;2023-01-29T17:55:50;101415.13;;;0.75;88.88
51617;BME280;37697;52.588;13.394;2023-01-29T18:00:53;101406.58;;;0.74;88.82
51617;BME280;37697;52.588;13.394;2023-01-29T18:05:56;101388.41;;;0.73;88.79
51617;BME280;37697;52.588;13.394;2023-01-29T18:10:59;101374.71;;;0.73;88.83
51617;BME280;37697;52.588;13.394;2023-01-29T18:16:02;101368.03;;;0.72;88.70
51617;BME280;37697;52.588;13.394;2023-01-29T18:21:05;101369.61;;;0.72;88.74
51617;BME280;37697;52.588;13.394;2023-01-29T18:26:10;101368.55;;;0.73;88.54
51617;BME280;37697;52.588;13.394;2023-01-29T18:31:13;101367.06;;;0.72;88.43
51617;BME280;37697;52.588;13.394;2023-01-29T18:36:16;101360.10;;;0.70;88.58
51617;BME280;37697;52.588;13.394;2023-01-29T18:41:19;101356.65;;;0.69;88.62
51617;BME280;37697;52.588;13.394;2023-01-29T18:46:21;101351.73;;;0.68;88.69
51617;BME280;37697;52.588;13.394;2023-01-29T18:51:25;101353.08;;;0.68;88.52
51617;BME280;37697;52.588;13.394;2023-01-29T18:56:28;101356.41;;;0.67;88.50
51617;BME280;37697;52.588;13.394;2023-01-29T19:01:30;101344.84;;;0.66;88.35
51617;BME280;37697;52.588;13.394;2023-01-29T19:06:33;101340.37;;;0.67;88.28
51617;BME280;37697;52.588;13.394;2023-01-29T19:11:39;101335.95;;;0.66;88.13
51617;BME280;37697;52.588;13.394;2023-01-29T19:16:41;101329.44;;;0.67;88.08
51617;BME280;37697;52.588;13.394;2023-01-29T19:21:45;101322.07;;;0.65;88.02
51617;BME280;37697;52.588;13.394;2023-01-29T19:26:48;101311.55;;;0.65;88.21
51617;BME280;37697;52.588;13.394;2023-01-29T19:31:51;101297.07;;;0.64;88.10
51617;BME280;37697;52.588;13.394;2023-01-29T19:36:54;101282.98;;;0.58;88.27
51617;BME280;37697;52.588;13.394;2023-01-29T19:41:57;101271.94;;;0.53;88.44
51617;BME280;37697;52.588;13.394;2023-01-29T19:47:00;101268.54;;;0.50;88.56
51617;BME280;37697;52.588;13.394;2023-01-29T19:52:04;101264.80;;;0.48;88.62
51617;BME280;37697;52.588;13.394;2023-01-29T19:57:09;101262.29;;;0.50;88.58
51617;BME280;37697;52.588;13.394;2023-01-29T20:02:12;101259.50;;;0.53;88.60
51617;BME280;37697;52.588;13.394;2023-01-29T20:07:14;101247.56;;;0.54;88.21
51617;BME280;37697;52.588;13.394;2023-01-29T20:12:17;101232.39;;;0.54;88.11
51617;BME280;37697;52.588;13.394;2023-01-29T20:17:21;101224.55;;;0.54;88.20
51617;BME280;37697;52.588;13.394;2023-01-29T20:22:25;101219.73;;;0.53;87.99
51617;BME280;37697;52.588;13.394;2023-01-29T20:27:27;101206.13;;;0.49;87.93
51617;BME280;37697;52.588;13.394;2023-01-29T20:32:30;101201.66;;;0.47;88.13
51617;BME280;37697;52.588;13.394;2023-01-29T20:37:34;101192.73;;;0.46;88.07
51617;BME280;37697;52.588;13.394;2023-01-29T20:42:36;101185.31;;;0.46;87.87
51617;BME280;37697;52.588;13.394;2023-01-29T20:47:41;101178.02;;;0.48;87.76
51617;BME280;37697;52.588;13.394;2023-01-29T20:52:44;101165.49;;;0.48;87.63
51617;BME280;37697;52.588;13.394;2023-01-29T20:57:47;101153.53;;;0.47;87.88
51617;BME280;37697;52.588;13.394;2023-01-29T21:03:08;101143.36;;;0.48;87.70
51617;BME280;37697;52.588;13.394;2023-01-29T21:08:11;101126.77;;;0.47;87.73
51617;BME280;37697;52.588;13.394;2023-01-29T21:13:13;101113.24;;;0.48;87.62
51617;BME280;37697;52.588;13.394;2023-01-29T21:18:16;101110.52;;;0.50;87.54
51617;BME280;37697;52.588;13.394;2023-01-29T21:23:19;101101.11;;;0.49;87.66
51617;BME280;37697;52.588;13.394;2023-01-29T21:28:22;101094.57;;;0.47;87.68
51617;BME280;37697;52.588;13.394;2023-01-29T21:33:24;101077.85;;;0.48;87.65
51617;BME280;37697;52.588;13.394;2023-01-29T21:38:27;101071.70;;;0.50;87.58
51617;BME280;37697;52.588;13.394;2023-01-29T21:43:30;101065.60;;;0.50;87.60
51617;BME280;37697;52.588;13.394;2023-01-29T21:48:32;101049.37;;;0.51;87.48
51617;BME280;37697;52.588;13.394;2023-01-29T21:53:35;101041.49;;;0.53;87.42
51617;BME280;37697;52.588;13.394;2023-01-29T21:58:38;101041.73;;;0.54;87.15
51617;BME280;37697;52.588;13.394;2023-01-29T22:03:40;101035.64;;;0.55;86.98
51617;BME280;37697;52.588;13.394;2023-01-29T22:08:43;101028.25;;;0.52;87.09
51617;BME280;37697;52.588;13.394;2023-01-29T22:13:46;101022.92;;;0.52;87.07
51617;BME280;37697;52.588;13.394;2023-01-29T22:18:48;101019.19;;;0.52;87.07
51617;BME280;37697;52.588;13.394;2023-01-29T22:23:51;101011.17;;;0.53;87.05
51617;BME280;37697;52.588;13.394;2023-01-29T22:28:54;100993.27;;;0.52;86.76
51617;BME280;37697;52.588;13.394;2023-01-29T22:33:56;100968.80;;;0.51;86.89
51617;BME280;37697;52.588;13.394;2023-01-29T22:38:59;100965.15;;;0.53;86.98
51617;BME280;37697;52.588;13.394;2023-01-29T22:44:02;100953.05;;;0.54;86.71
51617;BME280;37697;52.588;13.394;2023-01-29T22:49:05;100941.13;;;0.54;86.49
51617;BME280;37697;52.588;13.394;2023-01-29T22:54:08;100926.07;;;0.54;86.48
51617;BME280;37697;52.588;13.394;2023-01-29T22:59:10;100912.73;;;0.54;86.25
51617;BME280;37697;52.588;13.394;2023-01-29T23:04:13;100895.04;;;0.55;86.14
51617;BME280;37697;52.588;13.394;2023-01-29T23:09:15;100887.02;;;0.55;86.07
51617;BME280;37697;52.588;13.394;2023-01-29T23:14:18;100886.15;;;0.55;85.91
51617;BME280;37697;52.588;13.394;2023-01-29T23:19:21;100879.01;;;0.56;85.99
51617;BME280;37697;52.588;13.394;2023-01-29T23:24:24;100863.64;;;0.58;85.85
51617;BME280;37697;52.588;13.394;2023-01-29T23:29:26;100855.18;;;0.57;85.61
51617;BME280;37697;52.588;13.394;2023-01-29T23:34:29;100844.02;;;0.58;85.24
51617;BME280;37697;52.588;13.394;2023-01-29T23:39:32;100838.39;;;0.58;85.31
51617;BME280;37697;52.588;13.394;2023-01-29T23:44:35;100825.31;;;0.58;84.61
51617;BME280;37697;52.588;13.394;2023-01-29T23:49:38;100819.63;;;0.55;84.61
51617;BME280;37697;52.588;13.394;2023-01-29T23:54:41;100814.24;;;0.56;84.77
51617;BME280;37697;52.588;13.394;2023-01-29T23:59:43;100798.77;;;0.58;84.72
